Time;durP1;ratioP1;P1;durP2;ratioP2;P2;SDS_P1;SDS_P2;PMS_P1;PMS_P2;Temp;Humidity;BMP_temperature;BMP_pressure;BME280_temperature;BME280_humidity;BME280_pressure;Samples;Min_cycle;Max_cycle;Signal;HPM_P1;HPM_P2
2022/01/26 00:00:43;;;;;;;4.84;4.26;;;;;;;18.29;43.94;102015.33;;;;-49
2022/01/26 00:06:29;;;;;;;4.59;4.11;;;;;;;18.25;43.91;102012.09;;;;-52
2022/01/26 00:09:29;;;;;;;4.41;4.00;;;;;;;18.24;43.91;102011.38;;;;-63
2022/01/26 00:12:29;;;;;;;4.67;4.19;;;;;;;18.23;43.90;102009.98;;;;-59
2022/01/26 00:15:31;;;;;;;4.51;4.11;;;;;;;18.20;43.93;102007.62;;;;-49
2022/01/26 00:18:31;;;;;;;4.35;3.95;;;;;;;18.18;44.00;102011.38;;;;-52
2022/01/26 00:21:35;;;;;;;4.21;3.81;;;;;;;18.17;43.99;102001.25;;;;-52
2022/01/26 00:24:53;;;;;;;4.26;3.86;;;;;;;18.15;44.03;102002.72;;;;-52
2022/01/26 00:27:38;;;;;;;4.39;3.99;;;;;;;18.15;43.98;102003.12;;;;-52
2022/01/26 00:41:36;;;;;;;4.73;3.98;;;;;;;18.07;44.03;101997.30;;;;-53
2022/01/26 00:44:36;;;;;;;4.35;3.95;;;;;;;18.05;43.98;101996.98;;;;-53
2022/01/26 00:47:29;;;;;;;4.15;3.75;;;;;;;18.04;43.98;102001.09;;;;-53
2022/01/26 00:50:29;;;;;;;4.54;4.14;;;;;;;18.03;43.99;101999.91;;;;-52
2022/01/26 00:53:33;;;;;;;4.33;3.93;;;;;;;18.01;44.05;102000.50;;;;-53
2022/01/26 00:56:29;;;;;;;4.68;4.16;;;;;;;18.00;44.03;102002.33;;;;-52
2022/01/26 00:59:29;;;;;;;4.60;4.12;;;;;;;17.98;44.01;102007.13;;;;-52
2022/01/26 01:02:31;;;;;;;4.39;3.99;;;;;;;17.97;43.98;102008.94;;;;-53
2022/01/26 01:05:34;;;;;;;4.52;4.09;;;;;;;17.96;44.04;102013.37;;;;-52
2022/01/26 01:08:29;;;;;;;4.23;3.83;;;;;;;17.94;44.05;102009.98;;;;-52
2022/01/26 01:11:29;;;;;;;4.40;3.96;;;;;;;17.93;44.05;102005.09;;;;-53
2022/01/26 01:14:31;;;;;;;4.32;3.92;;;;;;;17.92;44.10;102015.73;;;;-52
2022/01/26 01:17:36;;;;;;;4.53;4.05;;;;;;;17.91;44.06;102020.18;;;;-53
2022/01/26 01:20:45;;;;;;;4.55;4.14;;;;;;;17.90;44.08;102024.25;;;;-53
2022/01/26 01:23:55;;;;;;;4.57;4.17;;;;;;;17.88;44.07;102019.47;;;;-60
2022/01/26 01:26:52;;;;;;;4.35;3.95;;;;;;;17.86;44.06;102022.56;;;;-62
2022/01/26 01:29:35;;;;;;;4.39;3.99;;;;;;;17.85;44.11;102016.94;;;;-49
2022/01/26 01:32:38;;;;;;;4.16;3.76;;;;;;;17.84;44.07;102020.06;;;;-62
2022/01/26 01:35:31;;;;;;;4.25;3.66;;;;;;;17.83;44.08;102020.11;;;;-60
2022/01/26 01:38:29;;;;;;;4.19;3.60;;;;;;;17.81;44.12;102015.06;;;;-60
2022/01/26 01:41:29;;;;;;;4.17;3.77;;;;;;;17.80;44.08;102018.97;;;;-62
2022/01/26 01:44:29;;;;;;;4.01;3.61;;;;;;;17.78;44.00;102020.73;;;;-60
2022/01/26 01:47:29;;;;;;;4.21;3.81;;;;;;;17.78;44.11;102025.14;;;;-60
2022/01/26 01:50:29;;;;;;;4.32;3.92;;;;;;;17.77;44.15;102025.70;;;;-61
2022/01/26 01:53:35;;;;;;;4.13;3.73;;;;;;;17.75;44.08;102021.24;;;;-62
2022/01/26 01:56:29;;;;;;;4.31;3.91;;;;;;;17.75;44.08;102022.60;;;;-53
2022/01/26 01:59:29;;;;;;;4.21;3.81;;;;;;;17.73;44.17;102024.32;;;;-53
2022/01/26 02:02:29;;;;;;;4.05;3.65;;;;;;;17.72;44.13;102032.70;;;;-52
2022/01/26 02:05:29;;;;;;;4.22;3.69;;;;;;;17.72;44.21;102034.80;;;;-53
2022/01/26 02:08:29;;;;;;;4.21;3.81;;;;;;;17.70;44.14;102039.22;;;;-53
2022/01/26 02:11:29;;;;;;;4.41;4.01;;;;;;;17.69;44.20;102039.31;;;;-53
2022/01/26 02:14:33;;;;;;;4.17;3.77;;;;;;;17.67;44.15;102031.29;;;;-53
2022/01/26 02:17:49;;;;;;;4.21;3.81;;;;;;;17.66;44.16;102030.47;;;;-54
2022/01/26 02:21:19;;;;;;;4.42;3.89;;;;;;;17.66;44.15;102030.91;;;;-53
2022/01/26 02:50:54;;;;;;;4.09;3.69;;;;;;;17.53;44.08;102013.97;;;;-53
2022/01/26 02:53:50;;;;;;;5.83;3.82;;;;;;;17.52;44.15;102014.09;;;;-53
2022/01/26 02:56:39;;;;;;;4.64;4.24;;;;;;;17.50;44.06;102021.16;;;;-53
2022/01/26 02:59:51;;;;;;;4.15;3.75;;;;;;;17.49;44.14;102023.16;;;;-53
2022/01/26 03:02:38;;;;;;;4.48;3.97;;;;;;;17.49;44.11;102025.11;;;;-53
2022/01/26 03:05:34;;;;;;;4.36;3.76;;;;;;;17.47;44.07;102018.70;;;;-52
2022/01/26 03:08:34;;;;;;;4.28;3.88;;;;;;;17.46;44.16;102015.81;;;;-53
2022/01/26 03:11:32;;;;;;;4.26;3.86;;;;;;;17.46;44.16;102010.13;;;;-53
2022/01/26 03:14:38;;;;;;;4.16;3.76;;;;;;;17.45;44.12;102008.37;;;;-53
2022/01/26 03:17:45;;;;;;;4.16;3.76;;;;;;;17.44;44.18;102007.95;;;;-59
2022/01/26 03:20:31;;;;;;;4.06;3.66;;;;;;;17.43;44.10;102003.14;;;;-52
2022/01/26 03:29:53;;;;;;;4.22;3.71;;;;;;;17.40;44.10;101998.30;;;;-52
2022/01/26 03:32:58;;;;;;;4.22;3.69;;;;;;;17.39;44.10;102000.55;;;;-53
2022/01/26 03:35:41;;;;;;;4.41;3.73;;;;;;;17.38;44.05;102000.34;;;;-53
2022/01/26 03:38:40;;;;;;;4.15;3.75;;;;;;;17.37;44.18;102002.94;;;;-53
2022/01/26 03:41:37;;;;;;;4.16;3.76;;;;;;;17.36;44.10;102000.02;;;;-53
2022/01/26 03:44:29;;;;;;;3.98;3.60;;;;;;;17.35;44.15;101997.07;;;;-53
2022/01/26 03:47:29;;;;;;;3.95;3.60;;;;;;;17.34;44.14;101996.69;;;;-53
2022/01/26 03:50:29;;;;;;;3.89;3.52;;;;;;;17.33;44.15;101993.22;;;;-53
2022/01/26 03:53:29;;;;;;;3.65;3.34;;;;;;;17.32;44.16;101985.19;;;;-53
2022/01/26 03:56:29;;;;;;;3.74;3.43;;;;;;;17.31;44.04;101988.89;;;;-53
2022/01/26 03:59:29;;;;;;;3.86;3.56;;;;;;;17.30;44.09;101986.56;;;;-53
2022/01/26 04:02:29;;;;;;;3.93;3.53;;;;;;;17.29;44.11;101990.18;;;;-53
2022/01/26 04:05:29;;;;;;;4.15;3.75;;;;;;;17.28;44.16;101994.09;;;;-52
2022/01/26 04:08:31;;;;;;;3.91;3.51;;;;;;;17.28;44.08;102001.70;;;;-53
2022/01/26 04:11:35;;;;;;;4.11;3.44;;;;;;;17.26;44.07;101999.48;;;;-53
2022/01/26 04:14:32;;;;;;;3.48;3.18;;;;;;;17.26;44.00;101998.55;;;;-53
2022/01/26 04:17:29;;;;;;;3.90;3.52;;;;;;;17.26;44.14;101994.98;;;;-52
2022/01/26 04:20:34;;;;;;;3.75;3.45;;;;;;;17.24;44.19;102000.33;;;;-52
2022/01/26 04:23:37;;;;;;;3.49;3.19;;;;;;;17.23;44.12;101996.66;;;;-53
2022/01/26 04:26:34;;;;;;;3.98;3.58;;;;;;;17.22;44.14;101993.48;;;;-52
2022/01/26 04:29:31;;;;;;;3.75;3.41;;;;;;;17.21;44.17;101996.66;;;;-53
2022/01/26 04:32:29;;;;;;;3.84;3.44;;;;;;;17.20;44.10;101992.75;;;;-53
2022/01/26 04:35:29;;;;;;;3.46;3.16;;;;;;;17.20;44.14;102000.05;;;;-53
2022/01/26 04:38:34;;;;;;;3.55;3.25;;;;;;;17.19;44.15;102001.36;;;;-53
2022/01/26 04:41:35;;;;;;;3.75;3.42;;;;;;;17.18;44.16;101997.09;;;;-54
2022/01/26 04:44:34;;;;;;;3.63;3.33;;;;;;;17.18;44.05;101993.60;;;;-53
2022/01/26 04:47:29;;;;;;;3.79;3.41;;;;;;;17.16;44.12;101991.87;;;;-53
2022/01/26 04:50:29;;;;;;;3.60;3.30;;;;;;;17.15;44.11;101989.55;;;;-53
2022/01/26 04:53:29;;;;;;;3.68;3.35;;;;;;;17.15;44.19;101988.72;;;;-53
2022/01/26 04:56:29;;;;;;;3.58;3.27;;;;;;;17.14;44.16;101992.87;;;;-52
2022/01/26 04:59:29;;;;;;;3.51;3.21;;;;;;;17.14;44.06;101987.60;;;;-53
2022/01/26 05:02:29;;;;;;;3.36;3.06;;;;;;;17.14;44.23;101983.80;;;;-53
2022/01/26 05:05:29;;;;;;;3.37;3.07;;;;;;;17.13;44.15;101994.79;;;;-53
2022/01/26 05:08:29;;;;;;;3.43;3.13;;;;;;;17.12;44.04;101998.18;;;;-53
2022/01/26 05:11:34;;;;;;;3.51;3.21;;;;;;;17.11;44.17;101994.22;;;;-54
2022/01/26 05:14:29;;;;;;;3.61;3.31;;;;;;;17.09;44.13;101999.81;;;;-52
2022/01/26 05:17:29;;;;;;;3.17;2.87;;;;;;;17.09;44.16;101995.13;;;;-52
2022/01/26 05:20:29;;;;;;;3.65;3.34;;;;;;;17.10;44.24;101999.75;;;;-52
2022/01/26 05:23:29;;;;;;;3.39;3.09;;;;;;;17.07;44.17;102002.17;;;;-53
2022/01/26 05:26:29;;;;;;;3.50;3.20;;;;;;;17.07;44.15;102006.95;;;;-52
2022/01/26 05:29:29;;;;;;;3.27;2.97;;;;;;;17.07;44.16;102005.16;;;;-52
2022/01/26 05:32:29;;;;;;;3.35;3.05;;;;;;;17.06;44.29;102003.34;;;;-54
2022/01/26 05:35:29;;;;;;;3.67;3.15;;;;;;;17.06;44.14;102002.61;;;;-53
2022/01/26 05:38:29;;;;;;;3.49;3.19;;;;;;;17.05;44.13;101991.05;;;;-52
2022/01/26 05:41:29;;;;;;;3.47;3.17;;;;;;;17.05;44.14;101986.20;;;;-52
2022/01/26 05:44:29;;;;;;;3.40;3.10;;;;;;;17.05;44.26;101977.61;;;;-53
2022/01/26 05:47:31;;;;;;;3.37;3.07;;;;;;;17.05;44.21;101981.82;;;;-52
2022/01/26 05:50:29;;;;;;;3.27;2.97;;;;;;;17.05;44.36;101974.22;;;;-49
2022/01/26 05:53:29;;;;;;;3.41;3.11;;;;;;;17.07;44.23;101974.05;;;;-53
2022/01/26 05:56:29;;;;;;;3.26;2.96;;;;;;;17.09;44.24;101977.69;;;;-52
2022/01/26 05:59:29;;;;;;;3.23;2.93;;;;;;;17.12;44.15;101969.98;;;;-52
2022/01/26 06:02:30;;;;;;;3.44;3.14;;;;;;;17.13;44.21;101976.17;;;;-51
2022/01/26 06:05:29;;;;;;;3.30;3.00;;;;;;;17.16;44.33;101975.63;;;;-59
2022/01/26 06:08:29;;;;;;;3.17;2.87;;;;;;;17.18;44.32;101978.20;;;;-52
2022/01/26 06:11:29;;;;;;;3.17;2.87;;;;;;;17.22;44.31;101970.59;;;;-53
2022/01/26 06:14:29;;;;;;;3.30;3.00;;;;;;;17.24;44.46;101963.80;;;;-53
2022/01/26 06:17:29;;;;;;;3.63;2.95;;;;;;;17.27;44.30;101960.44;;;;-53
2022/01/26 06:20:29;;;;;;;3.15;2.85;;;;;;;17.30;44.41;101967.59;;;;-60
2022/01/26 06:23:29;;;;;;;8.79;4.13;;;;;;;17.22;43.23;101965.25;;;;-59
2022/01/26 06:26:29;;;;;;;6.06;5.29;;;;;;;17.17;42.51;101962.63;;;;-58
2022/01/26 06:29:30;;;;;;;9.37;5.65;;;;;;;17.14;42.38;101967.34;;;;-55
2022/01/26 06:32:29;;;;;;;7.03;4.69;;;;;;;17.16;42.44;101962.70;;;;-61
2022/01/26 06:35:29;;;;;;;5.74;4.43;;;;;;;17.19;42.48;101960.05;;;;-58
2022/01/26 06:38:29;;;;;;;5.78;4.53;;;;;;;17.22;42.51;101971.08;;;;-58
2022/01/26 06:41:29;;;;;;;5.09;4.39;;;;;;;17.23;42.63;101975.36;;;;-57
2022/01/26 06:44:33;;;;;;;5.77;4.33;;;;;;;17.24;42.64;101982.51;;;;-54
2022/01/26 06:47:51;;;;;;;4.93;4.43;;;;;;;17.26;42.68;101986.73;;;;-58
2022/01/26 06:50:29;;;;;;;5.87;4.36;;;;;;;17.28;42.79;101979.98;;;;-59
2022/01/26 06:53:29;;;;;;;5.89;4.29;;;;;;;17.31;42.77;101990.59;;;;-59
2022/01/26 06:56:29;;;;;;;5.05;3.84;;;;;;;17.34;43.02;101990.12;;;;-61
2022/01/26 06:59:29;;;;;;;4.67;3.85;;;;;;;17.35;43.09;101996.22;;;;-59
2022/01/26 07:02:29;;;;;;;4.92;3.83;;;;;;;17.36;43.11;102004.64;;;;-60
2022/01/26 07:05:29;;;;;;;4.30;3.90;;;;;;;17.36;43.18;102001.72;;;;-59
2022/01/26 07:08:29;;;;;;;4.27;3.44;;;;;;;17.37;43.15;102014.25;;;;-60
2022/01/26 07:11:29;;;;;;;4.79;3.67;;;;;;;17.37;43.23;102013.84;;;;-59
2022/01/26 07:19:48;;;;;;;4.10;3.70;;;;;;;17.37;43.18;102019.52;;;;-59
2022/01/26 07:23:29;;;;;;;3.86;3.45;;;;;;;17.37;43.27;102020.66;;;;-60
2022/01/26 07:26:29;;;;;;;3.98;3.33;;;;;;;17.37;43.39;102036.30;;;;-59
2022/01/26 07:29:29;;;;;;;4.83;3.66;;;;;;;17.37;43.38;102041.48;;;;-59
2022/01/26 07:32:30;;;;;;;3.70;3.40;;;;;;;17.37;43.34;102043.11;;;;-61
2022/01/26 07:35:29;;;;;;;3.65;3.27;;;;;;;17.37;43.42;102038.92;;;;-59
2022/01/26 07:38:30;;;;;;;3.94;3.42;;;;;;;17.37;43.41;102040.38;;;;-60
2022/01/26 07:41:29;;;;;;;3.63;3.33;;;;;;;17.36;43.40;102038.50;;;;-54
2022/01/26 07:44:29;;;;;;;4.16;3.50;;;;;;;17.35;43.46;102040.99;;;;-60
2022/01/26 07:47:31;;;;;;;3.72;3.11;;;;;;;17.36;43.38;102043.11;;;;-60
2022/01/26 07:50:29;;;;;;;3.75;3.43;;;;;;;17.35;43.43;102049.98;;;;-60
2022/01/26 07:53:29;;;;;;;3.58;3.27;;;;;;;17.35;43.41;102061.37;;;;-60
2022/01/26 07:56:29;;;;;;;3.53;3.23;;;;;;;17.34;43.52;102057.23;;;;-60
2022/01/26 07:59:29;;;;;;;3.89;3.50;;;;;;;17.34;43.44;102047.19;;;;-50
2022/01/26 08:02:29;;;;;;;3.79;3.41;;;;;;;17.34;43.49;102046.84;;;;-50
2022/01/26 08:05:29;;;;;;;3.49;3.19;;;;;;;17.34;43.53;102048.22;;;;-50
2022/01/26 08:08:29;;;;;;;3.60;3.30;;;;;;;17.33;43.41;102049.41;;;;-50
2022/01/26 08:11:29;;;;;;;3.59;3.27;;;;;;;17.33;43.46;102041.97;;;;-50
2022/01/26 08:14:29;;;;;;;3.36;3.06;;;;;;;17.34;43.43;102055.59;;;;-50
2022/01/26 08:17:29;;;;;;;3.53;3.17;;;;;;;17.34;43.45;102057.13;;;;-50
2022/01/26 08:20:29;;;;;;;3.78;3.25;;;;;;;17.33;43.43;102056.55;;;;-50
2022/01/26 08:23:29;;;;;;;3.42;3.12;;;;;;;17.33;43.52;102052.05;;;;-60
2022/01/26 08:26:38;;;;;;;3.45;3.15;;;;;;;17.34;43.45;102065.41;;;;-61
2022/01/26 08:29:32;;;;;;;3.48;3.18;;;;;;;17.34;43.47;102079.42;;;;-60
2022/01/26 08:32:29;;;;;;;3.57;3.24;;;;;;;17.33;43.42;102058.41;;;;-61
2022/01/26 08:35:29;;;;;;;3.35;3.05;;;;;;;17.33;43.45;102066.28;;;;-50
2022/01/26 08:38:29;;;;;;;3.46;3.16;;;;;;;17.34;43.52;102075.05;;;;-51
2022/01/26 08:41:29;;;;;;;3.51;3.10;;;;;;;17.32;43.58;102076.02;;;;-59
2022/01/26 08:44:29;;;;;;;5.63;3.33;;;;;;;17.33;43.45;102067.61;;;;-59
2022/01/26 08:47:29;;;;;;;3.75;3.11;;;;;;;17.34;43.36;102062.08;;;;-59
2022/01/26 08:50:29;;;;;;;3.27;2.97;;;;;;;17.34;43.35;102063.61;;;;-58
2022/01/26 08:53:29;;;;;;;3.41;3.10;;;;;;;17.33;43.45;102058.48;;;;-54
2022/01/26 08:56:29;;;;;;;3.98;2.80;;;;;;;17.33;43.51;102064.25;;;;-51
2022/01/26 08:59:29;;;;;;;4.47;3.24;;;;;;;17.35;44.01;102049.17;;;;-52
2022/01/26 09:02:29;;;;;;;7.21;4.23;;;;;;;17.36;43.82;102044.98;;;;-48
2022/01/26 09:05:29;;;;;;;8.29;3.97;;;;;;;17.38;44.12;102048.14;;;;-49
2022/01/26 09:08:29;;;;;;;7.67;4.38;;;;;;;17.39;43.94;102046.99;;;;-50
2022/01/26 09:11:29;;;;;;;8.90;5.40;;;;;;;17.41;43.97;102043.30;;;;-51
2022/01/26 09:14:29;;;;;;;12.36;6.99;;;;;;;17.42;43.63;102036.64;;;;-53
2022/01/26 09:17:32;;;;;;;9.79;5.62;;;;;;;17.43;43.83;102017.69;;;;-56
2022/01/26 09:20:29;;;;;;;9.26;5.21;;;;;;;17.42;43.79;102023.42;;;;-53
2022/01/26 09:23:29;;;;;;;9.51;5.62;;;;;;;17.43;43.67;102039.57;;;;-54
2022/01/26 09:26:29;;;;;;;8.62;5.42;;;;;;;17.42;43.63;102031.22;;;;-60
2022/01/26 09:29:29;;;;;;;9.56;5.55;;;;;;;17.43;43.67;102020.93;;;;-57
2022/01/26 09:32:29;;;;;;;10.36;5.57;;;;;;;17.43;43.58;102016.31;;;;-55
2022/01/26 09:35:29;;;;;;;8.31;5.33;;;;;;;17.43;43.58;102033.13;;;;-55
2022/01/26 09:38:29;;;;;;;11.94;5.55;;;;;;;17.46;43.63;102035.76;;;;-48
2022/01/26 09:41:29;;;;;;;10.03;5.81;;;;;;;17.52;43.86;102041.66;;;;-52
2022/01/26 09:44:29;;;;;;;12.49;5.69;;;;;;;17.53;43.93;102046.31;;;;-51
2022/01/26 09:47:29;;;;;;;14.75;5.83;;;;;;;17.58;44.00;102039.63;;;;-51
2022/01/26 09:50:29;;;;;;;10.10;5.37;;;;;;;17.61;44.07;102037.80;;;;-51
2022/01/26 09:53:32;;;;;;;12.35;5.48;;;;;;;17.65;44.02;102034.95;;;;-52
2022/01/26 09:56:29;;;;;;;8.98;4.97;;;;;;;17.73;44.07;102044.58;;;;-52
2022/01/26 09:59:29;;;;;;;7.61;4.69;;;;;;;17.78;44.21;102042.74;;;;-50
2022/01/26 10:02:29;;;;;;;8.46;4.79;;;;;;;17.83;44.30;102049.97;;;;-56
2022/01/26 10:05:29;;;;;;;8.29;4.63;;;;;;;17.90;44.23;102050.95;;;;-52
2022/01/26 10:08:51;;;;;;;7.36;4.77;;;;;;;17.96;44.27;102058.72;;;;-54
2022/01/26 10:17:31;;;;;;;10.67;4.16;;;;;;;18.19;44.61;102084.25;;;;-55
2022/01/26 10:20:29;;;;;;;16.35;4.97;;;;;;;18.23;44.57;102098.94;;;;-59
2022/01/26 10:23:29;;;;;;;9.45;4.25;;;;;;;18.27;44.54;102093.73;;;;-59
2022/01/26 10:26:29;;;;;;;8.49;4.10;;;;;;;18.33;44.54;102103.86;;;;-58
2022/01/26 10:37:44;;;;;;;6.75;4.09;;;;;;;18.47;44.55;102096.31;;;;-53
2022/01/26 10:40:44;;;;;;;6.07;3.91;;;;;;;18.50;44.48;102080.05;;;;-50
2022/01/26 10:43:44;;;;;;;6.44;3.67;;;;;;;18.53;44.34;102069.91;;;;-58
2022/01/26 10:46:44;;;;;;;6.78;3.75;;;;;;;18.55;44.34;102074.11;;;;-53
2022/01/26 10:50:06;;;;;;;6.54;3.98;;;;;;;18.58;44.47;102079.20;;;;-48
2022/01/26 10:52:54;;;;;;;5.77;3.63;;;;;;;18.61;44.52;102085.95;;;;-50
2022/01/26 10:55:45;;;;;;;5.65;3.68;;;;;;;18.62;44.46;102073.25;;;;-52
2022/01/26 10:58:44;;;;;;;8.83;3.94;;;;;;;18.64;44.45;102065.05;;;;-62
2022/01/26 11:01:44;;;;;;;5.15;3.57;;;;;;;18.69;44.73;102061.80;;;;-60
2022/01/26 11:04:45;;;;;;;5.63;3.31;;;;;;;18.74;44.60;102064.52;;;;-57
2022/01/26 11:07:45;;;;;;;6.25;3.63;;;;;;;18.76;44.59;102072.78;;;;-57
2022/01/26 11:10:44;;;;;;;5.33;3.59;;;;;;;18.77;44.56;102052.66;;;;-50
2022/01/26 11:13:44;;;;;;;7.68;4.15;;;;;;;18.77;44.01;102052.02;;;;-53
2022/01/26 11:16:44;;;;;;;9.61;4.23;;;;;;;18.78;43.99;102049.30;;;;-53
2022/01/26 11:19:44;;;;;;;5.53;3.97;;;;;;;18.82;44.06;102045.46;;;;-54
2022/01/26 11:22:44;;;;;;;5.29;3.91;;;;;;;18.85;44.07;102053.38;;;;-52
2022/01/26 11:25:44;;;;;;;8.40;3.95;;;;;;;18.89;44.09;102047.83;;;;-56
2022/01/26 11:28:44;;;;;;;5.76;3.67;;;;;;;18.91;44.06;102050.33;;;;-52
2022/01/26 11:31:45;;;;;;;4.83;3.60;;;;;;;18.93;44.15;102051.22;;;;-60
2022/01/26 11:34:45;;;;;;;4.11;3.33;;;;;;;18.95;44.06;102049.26;;;;-59
2022/01/26 11:37:48;;;;;;;6.43;3.93;;;;;;;19.00;44.04;102055.83;;;;-54
2022/01/26 11:46:45;;;;;;;4.69;3.55;;;;;;;19.11;44.09;102050.57;;;;-61
2022/01/26 11:49:45;;;;;;;5.93;3.77;;;;;;;19.13;44.01;102057.47;;;;-57
2022/01/26 11:52:44;;;;;;;6.11;3.67;;;;;;;19.16;44.10;102057.11;;;;-57
2022/01/26 11:55:48;;;;;;;4.95;3.57;;;;;;;19.15;44.11;102048.23;;;;-57
2022/01/26 11:58:46;;;;;;;5.25;3.34;;;;;;;19.18;44.04;102048.64;;;;-51
2022/01/26 12:01:50;;;;;;;5.10;3.40;;;;;;;19.21;44.13;102044.66;;;;-53
2022/01/26 12:04:47;;;;;;;4.11;3.27;;;;;;;19.24;44.05;102046.80;;;;-59
2022/01/26 12:07:44;;;;;;;3.86;3.35;;;;;;;19.25;44.09;102050.64;;;;-60
2022/01/26 12:10:44;;;;;;;4.06;3.47;;;;;;;19.26;44.04;102045.30;;;;-59
2022/01/26 12:13:49;;;;;;;5.81;3.41;;;;;;;19.30;43.97;102047.17;;;;-59
2022/01/26 12:16:45;;;;;;;5.21;3.31;;;;;;;19.30;43.81;102042.94;;;;-59
2022/01/26 12:20:04;;;;;;;3.92;3.25;;;;;;;19.29;43.67;102037.44;;;;-60
2022/01/26 12:33:06;;;;;;;4.21;3.19;;;;;;;19.27;43.62;102045.52;;;;-60
2022/01/26 12:35:52;;;;;;;3.45;3.15;;;;;;;19.27;43.57;102042.50;;;;-59
2022/01/26 12:38:48;;;;;;;3.36;3.06;;;;;;;19.28;43.55;102039.30;;;;-59
2022/01/26 12:41:52;;;;;;;4.06;3.08;;;;;;;19.28;43.52;102031.17;;;;-60
2022/01/26 12:44:45;;;;;;;4.52;3.13;;;;;;;19.28;43.56;102023.78;;;;-60
2022/01/26 12:47:45;;;;;;;3.40;2.93;;;;;;;19.28;43.54;102022.08;;;;-60
2022/01/26 12:50:44;;;;;;;3.34;3.00;;;;;;;19.31;43.46;102038.08;;;;-54
2022/01/26 12:53:45;;;;;;;3.45;3.12;;;;;;;19.31;43.52;102041.25;;;;-55
2022/01/26 12:56:44;;;;;;;3.53;3.19;;;;;;;19.32;43.45;102046.51;;;;-59
2022/01/26 12:59:45;;;;;;;5.19;3.28;;;;;;;19.33;43.48;102045.86;;;;-59
2022/01/26 13:02:44;;;;;;;4.22;3.11;;;;;;;19.33;43.42;102043.59;;;;-60
2022/01/26 13:05:44;;;;;;;4.21;3.24;;;;;;;19.34;43.43;102038.23;;;;-54
2022/01/26 13:08:44;;;;;;;4.11;3.23;;;;;;;19.34;43.42;102043.45;;;;-54
2022/01/26 13:11:44;;;;;;;4.39;3.30;;;;;;;19.35;43.47;102048.21;;;;-54
2022/01/26 13:14:53;;;;;;;3.72;3.12;;;;;;;19.35;43.46;102057.48;;;;-54
2022/01/26 13:17:49;;;;;;;5.18;3.32;;;;;;;19.37;43.39;102048.84;;;;-59
2022/01/26 13:21:05;;;;;;;3.65;3.26;;;;;;;19.36;43.39;102036.47;;;;-60
2022/01/26 13:24:00;;;;;;;4.57;3.28;;;;;;;19.38;43.34;102043.45;;;;-60
2022/01/26 13:26:52;;;;;;;3.61;3.15;;;;;;;19.37;43.42;102049.42;;;;-60
2022/01/26 13:29:57;;;;;;;3.66;3.18;;;;;;;19.39;43.40;102067.20;;;;-60
2022/01/26 13:33:53;;;;;;;4.52;3.53;;;;;;;19.40;43.38;102070.71;;;;-60
2022/01/26 13:36:56;;;;;;;3.57;3.06;;;;;;;19.40;43.41;102069.41;;;;-60
2022/01/26 13:39:57;;;;;;;3.67;3.30;;;;;;;19.41;43.39;102070.02;;;;-60
2022/01/26 13:43:16;;;;;;;3.87;3.31;;;;;;;19.41;43.37;102075.00;;;;-55
2022/01/26 13:46:11;;;;;;;3.71;3.13;;;;;;;19.43;43.26;102081.08;;;;-60
2022/01/26 13:49:12;;;;;;;12.02;3.91;;;;;;;19.49;43.46;102080.87;;;;-59
2022/01/26 13:51:59;;;;;;;9.11;3.60;;;;;;;19.57;43.55;102083.90;;;;-62
2022/01/26 13:55:02;;;;;;;4.73;3.35;;;;;;;19.62;43.85;102079.56;;;;-62
2022/01/26 13:58:16;;;;;;;8.48;3.66;;;;;;;19.68;44.18;102072.92;;;;-58
2022/01/26 14:00:54;;;;;;;6.39;3.85;;;;;;;19.68;43.84;102069.84;;;;-53
2022/01/26 14:03:46;;;;;;;6.27;3.69;;;;;;;19.71;43.85;102071.16;;;;-49
2022/01/26 14:06:44;;;;;;;13.65;6.45;;;;;;;19.64;42.59;102081.91;;;;-53
2022/01/26 14:09:45;;;;;;;11.87;6.16;;;;;;;19.62;42.75;102084.45;;;;-51
2022/01/26 14:12:47;;;;;;;11.63;6.27;;;;;;;19.65;42.84;102091.06;;;;-52
2022/01/26 14:15:47;;;;;;;9.83;5.55;;;;;;;19.67;43.09;102083.36;;;;-56
2022/01/26 14:25:46;;;;;;;10.18;5.45;;;;;;;19.80;43.49;102065.69;;;;-53
2022/01/26 14:28:44;;;;;;;13.69;4.95;;;;;;;19.84;43.55;102055.80;;;;-48
2022/01/26 14:32:02;;;;;;;13.99;5.24;;;;;;;19.83;43.50;102050.96;;;;-53
2022/01/26 14:35:18;;;;;;;16.73;7.04;;;;;;;19.81;42.73;102047.96;;;;-51
2022/01/26 14:39:41;;;;;;;12.64;6.88;;;;;;;19.83;42.85;102048.11;;;;-50
2022/01/26 15:12:05;;;;;;;11.07;6.02;;;;;;;19.90;42.66;102005.83;;;;-59
2022/01/26 15:21:04;;;;;;;11.13;5.74;;;;;;;19.94;42.96;102004.41;;;;-56
2022/01/26 15:30:12;;;;;;;11.38;5.87;;;;;;;19.99;42.91;102011.56;;;;-57
2022/01/26 15:33:49;;;;;;;9.53;6.25;;;;;;;20.00;42.98;102020.94;;;;-54
2022/01/26 15:40:07;;;;;;;8.75;5.37;;;;;;;20.04;42.95;102012.10;;;;-59
2022/01/26 15:43:09;;;;;;;8.05;5.37;;;;;;;20.04;42.98;102015.94;;;;-50
2022/01/26 15:48:50;;;;;;;9.27;5.63;;;;;;;20.09;43.10;102027.23;;;;-50
2022/01/26 15:51:54;;;;;;;8.64;5.23;;;;;;;20.09;43.12;102036.77;;;;-51
2022/01/26 15:58:33;;;;;;;8.77;5.21;;;;;;;20.14;43.07;102026.64;;;;-53
2022/01/26 16:06:58;;;;;;;7.54;4.98;;;;;;;20.19;43.10;102022.41;;;;-52
2022/01/26 16:12:56;;;;;;;7.13;4.77;;;;;;;20.21;43.04;102011.12;;;;-59
2022/01/26 16:26:18;;;;;;;7.77;4.72;;;;;;;20.18;42.85;102017.55;;;;-56
2022/01/26 16:35:07;;;;;;;6.44;4.59;;;;;;;20.18;42.70;102018.20;;;;-56
2022/01/26 17:55:15;;;;;;;5.90;3.77;;;;;;;20.11;42.67;102022.58;;;;-61
2022/01/26 18:07:08;;;;;;;4.71;3.77;;;;;;;20.24;42.82;102031.81;;;;-51
2022/01/26 18:26:07;;;;;;;4.01;3.50;;;;;;;20.36;43.11;102018.39;;;;-58
2022/01/26 18:32:07;;;;;;;6.03;3.51;;;;;;;20.39;43.13;102025.23;;;;-58
2022/01/26 18:46:19;;;;;;;3.89;3.49;;;;;;;20.39;43.04;102014.30;;;;-52
2022/01/26 18:46:55;;;;;;;4.35;3.73;;;;;;;20.41;43.06;102014.86;;;;-51
2022/01/26 18:49:44;;;;;;;4.92;3.43;;;;;;;20.42;42.89;102016.53;;;;-54
2022/01/26 18:52:45;;;;;;;4.25;3.29;;;;;;;20.40;42.86;102022.91;;;;-56
2022/01/26 18:55:44;;;;;;;5.49;3.60;;;;;;;20.37;42.84;102020.86;;;;-53
2022/01/26 18:58:44;;;;;;;4.21;3.39;;;;;;;20.35;42.90;102027.15;;;;-50
2022/01/26 19:01:44;;;;;;;4.86;3.59;;;;;;;20.34;42.90;102032.35;;;;-55
2022/01/26 19:04:47;;;;;;;4.57;3.50;;;;;;;20.33;42.79;102029.86;;;;-55
2022/01/26 19:07:45;;;;;;;4.16;3.21;;;;;;;20.32;42.84;102025.45;;;;-53
2022/01/26 19:10:44;;;;;;;4.11;3.37;;;;;;;20.33;42.85;102017.39;;;;-53
2022/01/26 19:13:46;;;;;;;4.85;3.40;;;;;;;20.32;42.86;102014.61;;;;-53
2022/01/26 19:16:49;;;;;;;4.32;3.30;;;;;;;20.32;42.92;102015.84;;;;-56
2022/01/26 19:19:55;;;;;;;3.91;3.35;;;;;;;20.30;42.94;102013.09;;;;-57
2022/01/26 19:23:04;;;;;;;3.85;3.34;;;;;;;20.29;42.94;102010.16;;;;-53
2022/01/26 19:25:49;;;;;;;4.45;3.35;;;;;;;20.30;42.82;102008.12;;;;-53
2022/01/26 19:28:51;;;;;;;4.05;3.09;;;;;;;20.30;42.81;102005.36;;;;-52
2022/01/26 19:40:37;;;;;;;3.34;3.04;;;;;;;20.28;42.90;102010.61;;;;-53
2022/01/26 19:46:02;;;;;;;4.53;3.34;;;;;;;20.28;42.75;102020.77;;;;-53
2022/01/26 19:51:56;;;;;;;4.37;3.35;;;;;;;20.24;42.77;102026.77;;;;-52
2022/01/26 19:54:45;;;;;;;9.93;3.43;;;;;;;20.27;42.73;102026.84;;;;-55
2022/01/26 19:57:44;;;;;;;5.11;2.98;;;;;;;20.26;42.91;102033.09;;;;-54
2022/01/26 20:00:46;;;;;;;3.53;3.09;;;;;;;20.27;43.10;102032.73;;;;-53
2022/01/26 20:03:44;;;;;;;5.47;3.38;;;;;;;20.25;43.19;102030.40;;;;-52
2022/01/26 20:06:45;;;;;;;10.23;3.89;;;;;;;20.22;42.62;102033.72;;;;-57
2022/01/26 20:09:48;;;;;;;5.19;3.48;;;;;;;20.19;42.65;102034.63;;;;-57
2022/01/26 20:12:47;;;;;;;6.79;3.46;;;;;;;20.16;42.62;102030.60;;;;-52
2022/01/26 20:15:44;;;;;;;5.44;3.43;;;;;;;20.14;42.61;102024.52;;;;-52
2022/01/26 20:18:44;;;;;;;5.11;3.19;;;;;;;20.08;42.56;102014.66;;;;-52
2022/01/26 20:21:44;;;;;;;5.55;3.62;;;;;;;20.05;42.58;102013.45;;;;-52
2022/01/26 20:24:44;;;;;;;5.32;3.55;;;;;;;20.02;42.43;102010.58;;;;-57
2022/01/26 20:27:44;;;;;;;17.46;3.78;;;;;;;19.99;42.40;102004.90;;;;-56
2022/01/26 20:30:47;;;;;;;5.13;3.53;;;;;;;19.97;42.45;102001.17;;;;-57
2022/01/26 20:33:44;;;;;;;6.40;3.49;;;;;;;19.94;42.41;102001.80;;;;-56
2022/01/26 20:36:44;;;;;;;4.01;3.50;;;;;;;19.91;42.44;102008.56;;;;-56
2022/01/26 20:39:44;;;;;;;4.29;3.51;;;;;;;19.88;42.47;102013.86;;;;-56
2022/01/26 20:42:44;;;;;;;6.73;3.63;;;;;;;19.85;42.58;102012.53;;;;-65
2022/01/26 20:45:45;;;;;;;4.97;3.43;;;;;;;19.85;42.83;102006.67;;;;-59
2022/01/26 20:48:44;;;;;;;4.73;3.50;;;;;;;19.84;42.97;101998.81;;;;-55
2022/01/26 20:51:44;;;;;;;4.53;3.45;;;;;;;19.83;43.05;101996.93;;;;-50
2022/01/26 20:54:44;;;;;;;4.67;3.58;;;;;;;19.82;43.03;101996.48;;;;-47
2022/01/26 21:01:53;;;;;;;4.43;3.35;;;;;;;19.78;43.21;101986.05;;;;-46
2022/01/26 21:04:44;;;;;;;4.09;3.31;;;;;;;19.76;43.22;101991.12;;;;-53
2022/01/26 21:07:44;;;;;;;4.52;3.59;;;;;;;19.74;43.25;101995.21;;;;-52
2022/01/26 21:10:44;;;;;;;4.09;3.27;;;;;;;19.72;43.31;101992.55;;;;-51
2022/01/26 21:13:48;;;;;;;3.63;3.24;;;;;;;19.70;43.28;101983.75;;;;-51
2022/01/26 21:16:44;;;;;;;3.75;3.30;;;;;;;19.68;43.34;101982.56;;;;-53
2022/01/26 21:19:44;;;;;;;6.54;3.45;;;;;;;19.66;43.35;101986.65;;;;-52
2022/01/26 21:22:44;;;;;;;3.59;3.23;;;;;;;19.65;43.36;101981.30;;;;-52
2022/01/26 21:25:44;;;;;;;5.17;3.33;;;;;;;19.61;43.38;101973.95;;;;-53
2022/01/26 21:28:44;;;;;;;3.63;3.27;;;;;;;19.58;43.46;101967.28;;;;-53
2022/01/26 21:31:44;;;;;;;3.81;3.39;;;;;;;19.56;43.43;101968.20;;;;-52
2022/01/26 21:34:44;;;;;;;4.62;3.37;;;;;;;19.53;43.45;101972.19;;;;-53
2022/01/26 21:37:45;;;;;;;3.89;3.25;;;;;;;19.52;43.45;101966.69;;;;-59
2022/01/26 21:40:45;;;;;;;4.54;3.38;;;;;;;19.49;43.52;101962.23;;;;-54